createdAt,value
2019-04-11T00:01:45.179Z,5.70
2019-04-11T00:04:11.020Z,5.70
2019-04-11T00:06:39.874Z,5.60
2019-04-11T00:09:11.809Z,5.50
2019-04-11T00:11:40.631Z,5.60
2019-04-11T00:14:09.809Z,5.60
2019-04-11T00:16:39.488Z,5.60
2019-04-11T00:19:09.399Z,5.70
2019-04-11T00:21:39.345Z,5.50
2019-04-11T00:24:08.220Z,5.50
2019-04-11T00:26:38.114Z,5.50
2019-04-11T00:29:07.070Z,5.40
2019-04-11T00:31:36.909Z,5.40
2019-04-11T00:34:06.819Z,5.40
2019-04-11T00:36:36.733Z,5.50
2019-04-11T00:39:07.871Z,5.50
2019-04-11T00:41:37.658Z,5.40
2019-04-11T00:44:06.621Z,5.40
2019-04-11T00:46:36.247Z,5.40
2019-04-11T00:49:06.227Z,5.30
2019-04-11T00:51:36.075Z,5.30
2019-04-11T00:54:05.051Z,5.30
2019-04-11T00:56:34.537Z,5.20
2019-04-11T00:59:03.438Z,5.30
2019-04-11T01:01:32.254Z,5.20
2019-04-11T01:04:01.325Z,5.30
2019-04-11T01:06:30.280Z,5.30
2019-04-11T01:08:59.934Z,5.20
2019-04-11T01:11:29.981Z,5.20
2019-04-11T01:13:59.505Z,5.20
2019-04-11T01:16:44.868Z,5.10
2019-04-11T01:19:14.284Z,5.10
2019-04-11T01:21:43.077Z,5.10
2019-04-11T01:24:13.489Z,5.10
2019-04-11T01:26:43.406Z,5.10
2019-04-11T01:29:13.342Z,5.10
2019-04-11T01:31:44.181Z,5.10
2019-04-11T01:34:13.035Z,5.20
2019-04-11T01:36:42.880Z,5.10
2019-04-11T01:39:46.003Z,5.10
2019-04-11T01:42:16.174Z,5.10
2019-04-11T01:44:45.966Z,5.10
2019-04-11T01:47:23.700Z,5.10
2019-04-11T01:49:52.528Z,5.10
2019-04-11T01:52:22.336Z,5.10
2019-04-11T01:54:52.156Z,5.10
2019-04-11T01:57:22.080Z,5.00
2019-04-11T01:59:51.330Z,5.00
2019-04-11T02:02:32.677Z,4.90
2019-04-11T02:05:06.537Z,4.90
2019-04-11T02:07:36.460Z,5.00
2019-04-11T02:10:05.911Z,4.90
2019-04-11T02:12:35.271Z,4.90
2019-04-11T02:15:25.122Z,4.90
2019-04-11T02:17:54.984Z,4.80
2019-04-11T02:20:24.949Z,4.80
2019-04-11T02:23:02.522Z,4.80
2019-04-11T02:26:07.052Z,4.70
2019-04-11T02:28:37.004Z,4.70
2019-04-11T02:31:09.098Z,4.70
2019-04-11T02:33:37.194Z,4.70
2019-04-11T02:36:07.955Z,4.60
2019-04-11T02:38:37.333Z,4.70
2019-04-11T02:41:08.600Z,4.70
2019-04-11T02:43:40.105Z,4.70
2019-04-11T02:46:17.097Z,4.70
2019-04-11T02:48:40.474Z,4.70
2019-04-11T02:51:09.851Z,4.70
2019-04-11T02:53:38.999Z,4.80
2019-04-11T02:56:10.747Z,4.70
2019-04-11T02:58:39.254Z,4.70
2019-04-11T03:01:10.454Z,4.70
2019-04-11T03:03:39.929Z,4.70
2019-04-11T03:06:11.163Z,4.70
2019-04-11T03:08:41.060Z,4.70
2019-04-11T03:11:10.947Z,4.80
2019-04-11T03:13:40.231Z,4.80
2019-04-11T03:16:24.985Z,4.70
2019-04-11T03:18:54.920Z,4.80
2019-04-11T03:21:14.454Z,4.80
2019-04-11T03:23:41.768Z,4.80
2019-04-11T03:26:13.875Z,4.80
2019-04-11T03:28:46.784Z,4.80
2019-04-11T03:31:53.780Z,4.80
2019-04-11T03:34:25.148Z,4.80
2019-04-11T03:39:07.658Z,4.70
2019-04-11T03:41:35.179Z,4.80
2019-04-11T03:43:58.169Z,4.80
2019-04-11T03:46:33.897Z,4.80
2019-04-11T03:48:59.975Z,4.80
2019-04-11T03:51:21.074Z,4.70
2019-04-11T03:53:51.628Z,4.80
2019-04-11T03:56:22.036Z,4.80
2019-04-11T03:58:51.127Z,4.80
2019-04-11T04:01:22.159Z,4.80
2019-04-11T04:03:53.430Z,4.90
2019-04-11T04:06:23.162Z,4.80
2019-04-11T04:08:53.191Z,4.80
2019-04-11T04:11:27.390Z,4.80
2019-04-11T04:14:15.013Z,4.80
2019-04-11T04:17:09.084Z,4.80
2019-04-11T04:19:45.639Z,4.80
2019-04-11T04:22:22.167Z,4.80
2019-04-11T04:24:53.205Z,4.80
2019-04-11T04:27:25.501Z,4.80
2019-04-11T04:29:57.271Z,4.80
2019-04-11T04:32:25.059Z,4.80
2019-04-11T04:34:56.029Z,4.80
2019-04-11T04:37:26.486Z,4.80
2019-04-11T04:40:13.555Z,4.80
2019-04-11T04:42:35.961Z,4.80
2019-04-11T04:44:58.885Z,4.70
2019-04-11T04:47:37.333Z,4.80
2019-04-11T04:49:59.326Z,4.70
2019-04-11T04:52:29.692Z,4.80
2019-04-11T04:54:59.976Z,4.70
2019-04-11T04:57:31.227Z,4.70
2019-04-11T05:00:02.412Z,4.70
2019-04-11T05:02:32.347Z,4.70
2019-04-11T05:05:03.847Z,4.70
2019-04-11T05:07:37.388Z,4.60
2019-04-11T05:10:03.325Z,4.60
2019-04-11T05:12:34.463Z,4.60
2019-04-11T05:15:03.765Z,4.60
2019-04-11T05:17:34.378Z,4.60
2019-04-11T05:20:05.018Z,4.50
2019-04-11T05:22:35.138Z,4.60
2019-04-11T05:25:05.454Z,4.50
2019-04-11T05:27:35.650Z,4.50
2019-04-11T05:30:05.126Z,4.50
2019-04-11T05:32:35.348Z,4.50
2019-04-11T05:35:04.863Z,4.60
2019-04-11T05:37:33.718Z,4.60
2019-04-11T05:40:03.069Z,4.50
2019-04-11T05:42:33.308Z,4.50
2019-04-11T05:45:03.281Z,4.50
2019-04-11T05:47:32.565Z,4.40
2019-04-11T05:50:13.297Z,4.40
2019-04-11T05:52:42.097Z,4.40
2019-04-11T05:55:13.340Z,4.50
2019-04-11T05:57:44.767Z,4.60
2019-04-11T06:00:21.687Z,4.50
2019-04-11T06:02:55.301Z,4.50
2019-04-11T06:05:32.448Z,4.50
2019-04-11T06:08:02.539Z,4.50
2019-04-11T06:10:42.566Z,4.50
2019-04-11T06:13:24.639Z,4.50
2019-04-11T06:15:56.687Z,4.60
2019-04-11T06:18:45.430Z,4.40
2019-04-11T06:21:21.837Z,4.50
2019-04-11T06:24:09.975Z,4.60
2019-04-11T06:27:04.106Z,4.50
2019-04-11T06:29:38.945Z,4.50
2019-04-11T06:32:19.374Z,4.50
2019-04-11T06:34:57.753Z,4.60
2019-04-11T06:37:45.688Z,4.70
2019-04-11T06:40:24.874Z,4.70
2019-04-11T06:43:01.433Z,4.40
2019-04-11T06:45:48.046Z,4.50
2019-04-11T06:48:29.559Z,4.60
2019-04-11T06:51:11.827Z,4.50
2019-04-11T06:53:48.407Z,4.40
2019-04-11T06:56:29.341Z,4.50
2019-04-11T06:59:02.143Z,4.60
2019-04-11T07:01:31.334Z,4.60
2019-04-11T07:04:07.150Z,4.80
2019-04-11T07:06:37.842Z,4.80
2019-04-11T07:09:22.250Z,4.80
2019-04-11T07:11:54.117Z,5.00
2019-04-11T07:14:33.250Z,5.00
2019-04-11T07:17:21.097Z,5.00
2019-04-11T07:20:16.550Z,4.90
2019-04-11T07:23:03.762Z,5.10
2019-04-11T07:25:50.251Z,5.10
2019-04-11T07:28:50.250Z,5.10
2019-04-11T07:31:38.013Z,5.10
2019-04-11T07:34:32.604Z,5.20
2019-04-11T07:37:17.022Z,5.20
2019-04-11T07:40:07.642Z,5.10
2019-04-11T07:42:43.465Z,5.20
2019-04-11T07:45:17.412Z,5.30
2019-04-11T07:47:52.652Z,5.40
2019-04-11T07:50:23.142Z,5.40
2019-04-11T07:52:56.296Z,5.40
2019-04-11T07:55:25.957Z,5.50
2019-04-11T07:58:13.894Z,5.50
2019-04-11T08:01:08.306Z,5.60
2019-04-11T08:03:51.666Z,5.70
2019-04-11T08:06:37.758Z,5.80
2019-04-11T08:09:31.768Z,5.70
2019-04-11T08:12:09.893Z,5.90
2019-04-11T08:15:01.381Z,5.80
2019-04-11T08:17:40.456Z,6.00
2019-04-11T08:20:25.959Z,5.90
2019-04-11T08:23:05.968Z,6.00
2019-04-11T08:25:53.574Z,6.10
2019-04-11T08:28:23.021Z,6.20
2019-04-11T08:30:57.771Z,6.20
2019-04-11T08:33:28.837Z,6.40
2019-04-11T08:36:17.766Z,6.50
2019-04-11T08:38:47.059Z,6.60
2019-04-11T08:41:33.944Z,6.70
2019-04-11T08:44:17.432Z,6.80
2019-04-11T08:46:49.705Z,6.90
2019-04-11T08:49:27.462Z,7.00
2019-04-11T08:51:57.871Z,7.10
2019-04-11T08:54:50.053Z,6.90
2019-04-11T08:57:30.492Z,7.10
2019-04-11T09:00:22.088Z,7.30
2019-04-11T09:03:00.143Z,7.00
2019-04-11T09:05:42.900Z,7.20
2019-04-11T09:08:40.734Z,7.10
2019-04-11T09:11:20.490Z,7.10
2019-04-11T09:14:09.617Z,6.90
2019-04-11T09:16:48.127Z,7.00
2019-04-11T09:19:27.243Z,7.20
2019-04-11T09:22:33.812Z,7.40
2019-04-11T09:25:34.642Z,7.30
2019-04-11T09:28:26.929Z,7.50
2019-04-11T09:31:17.649Z,7.60
2019-04-11T09:34:11.646Z,7.80
2019-04-11T09:37:05.501Z,7.90
2019-04-11T09:39:53.100Z,7.80
2019-04-11T09:42:28.413Z,7.90
2019-04-11T09:45:13.134Z,7.80
2019-04-11T09:48:08.536Z,7.80
2019-04-11T09:50:42.758Z,7.90
2019-04-11T09:53:12.148Z,8.00
2019-04-11T09:56:13.736Z,7.80
2019-04-11T09:58:43.967Z,8.00
2019-04-11T10:01:41.103Z,8.20
2019-04-11T10:04:10.820Z,8.30
2019-04-11T10:06:59.147Z,8.00
2019-04-11T10:09:37.974Z,8.10
2019-04-11T10:12:38.299Z,8.20
2019-04-11T10:15:09.337Z,8.30
2019-04-11T10:17:46.390Z,8.10
2019-04-11T10:20:16.768Z,7.90
2019-04-11T10:23:02.097Z,8.00
2019-04-11T10:25:41.733Z,7.70
2019-04-11T10:28:29.922Z,7.90
2019-04-11T10:31:18.117Z,8.10
2019-04-11T10:33:53.397Z,8.10
2019-04-11T10:36:25.392Z,8.10
2019-04-11T10:39:19.781Z,8.20
2019-04-11T10:41:51.416Z,8.20
2019-04-11T10:44:25.931Z,8.20
2019-04-11T10:47:05.747Z,8.10
2019-04-11T10:50:00.791Z,8.10
2019-04-11T10:52:52.906Z,7.90
2019-04-11T10:55:39.870Z,8.00
2019-04-11T10:58:16.281Z,8.00
2019-04-11T11:00:55.692Z,7.90
2019-04-11T11:03:29.020Z,7.90
2019-04-11T11:05:59.673Z,7.90
2019-04-11T11:08:53.428Z,8.00
2019-04-11T11:11:36.535Z,8.00
2019-04-11T11:14:31.409Z,8.00
2019-04-11T11:17:10.779Z,8.00
2019-04-11T11:20:15.282Z,8.00
2019-04-11T11:22:53.716Z,8.00
2019-04-11T11:25:30.941Z,7.90
2019-04-11T11:28:00.813Z,7.90
2019-04-11T11:30:58.549Z,7.90
2019-04-11T11:33:30.106Z,8.00
2019-04-11T11:36:23.982Z,7.80
2019-04-11T11:39:06.690Z,7.90
2019-04-11T11:42:06.717Z,8.00
2019-04-11T11:44:42.727Z,7.90
2019-04-11T11:47:45.957Z,8.00
2019-04-11T11:50:20.112Z,8.00
2019-04-11T11:53:09.420Z,8.00
2019-04-11T11:55:37.967Z,8.00
2019-04-11T11:58:23.806Z,8.00
2019-04-11T12:00:54.529Z,8.00
2019-04-11T12:03:44.950Z,8.00
2019-04-11T12:06:16.916Z,7.90
2019-04-11T12:09:02.505Z,7.90
2019-04-11T12:11:32.322Z,8.00
2019-04-11T12:14:24.295Z,7.90
2019-04-11T12:17:08.513Z,7.70
2019-04-11T12:19:50.679Z,7.80
2019-04-11T12:22:13.055Z,7.80
2019-04-11T12:24:48.297Z,7.60
2019-04-11T12:27:47.898Z,7.80
2019-04-11T12:30:35.427Z,7.90
2019-04-11T12:33:21.956Z,8.10
2019-04-11T12:35:57.869Z,8.10
2019-04-11T12:38:34.887Z,8.20
2019-04-11T12:41:21.787Z,8.20
2019-04-11T12:44:07.682Z,8.20
2019-04-11T12:46:54.267Z,8.20
2019-04-11T12:49:30.466Z,8.30
2019-04-11T12:52:33.667Z,8.10
2019-04-11T12:55:02.515Z,8.00
2019-04-11T12:57:49.103Z,8.00
2019-04-11T13:00:27.136Z,8.10
2019-04-11T13:03:23.713Z,8.00
2019-04-11T13:05:55.641Z,8.00
2019-04-11T13:08:43.581Z,8.20
2019-04-11T13:11:12.872Z,8.20
2019-04-11T13:13:53.481Z,8.30
2019-04-11T13:16:23.196Z,8.30
2019-04-11T13:19:08.163Z,8.10
2019-04-11T13:21:41.602Z,8.20
2019-04-11T13:24:32.120Z,8.30
2019-04-11T13:27:13.013Z,8.30
2019-04-11T13:30:04.092Z,8.30
2019-04-11T13:33:02.089Z,8.30
2019-04-11T13:36:05.058Z,8.30
2019-04-11T13:38:47.908Z,8.20
2019-04-11T13:41:38.615Z,8.30
2019-04-11T13:44:10.770Z,8.00
2019-04-11T13:46:58.622Z,8.00
2019-04-11T13:49:46.534Z,8.00
2019-04-11T13:52:34.705Z,8.00
2019-04-11T13:55:38.671Z,7.80
2019-04-11T13:58:35.833Z,8.00
2019-04-11T14:01:11.244Z,8.00
2019-04-11T14:03:59.075Z,7.90
2019-04-11T14:06:38.279Z,8.00
2019-04-11T14:09:25.688Z,8.10
2019-04-11T14:12:08.448Z,8.00
2019-04-11T14:14:42.545Z,8.10
2019-04-11T14:17:30.596Z,8.10
2019-04-11T14:20:13.894Z,8.10
2019-04-11T14:23:01.833Z,8.10
2019-04-11T14:25:45.343Z,8.00
2019-04-11T14:28:15.874Z,8.00
2019-04-11T14:30:58.312Z,8.00
2019-04-11T14:33:30.651Z,7.90
2019-04-11T14:36:17.048Z,7.80
2019-04-11T14:38:51.815Z,7.80
2019-04-11T14:41:42.584Z,7.80
2019-04-11T14:44:11.294Z,7.80
2019-04-11T14:47:07.456Z,7.80
2019-04-11T14:49:40.610Z,7.90
2019-04-11T14:52:37.471Z,7.80
2019-04-11T14:55:08.789Z,7.70
2019-04-11T14:57:46.850Z,7.80
2019-04-11T15:00:38.719Z,7.80
2019-04-11T15:03:14.901Z,7.80
2019-04-11T15:06:09.911Z,7.80
2019-04-11T15:08:56.484Z,7.80
2019-04-11T15:11:44.347Z,7.80
2019-04-11T15:14:30.812Z,7.80
2019-04-11T15:17:17.565Z,7.70
2019-04-11T15:19:51.088Z,7.70
2019-04-11T15:22:41.490Z,7.70
2019-04-11T15:25:21.197Z,7.60
2019-04-11T15:28:08.043Z,7.60
2019-04-11T15:30:38.360Z,7.30
2019-04-11T15:33:25.265Z,7.40
2019-04-11T15:35:57.705Z,7.40
2019-04-11T15:38:39.421Z,7.50
2019-04-11T15:41:08.565Z,7.40
2019-04-11T15:44:03.961Z,7.40
2019-04-11T15:46:34.521Z,7.50
2019-04-11T15:49:31.082Z,7.50
2019-04-11T15:52:06.376Z,7.40
2019-04-11T15:54:54.928Z,7.40
2019-04-11T15:57:35.274Z,7.40
2019-04-11T16:00:29.226Z,7.30
2019-04-11T16:03:04.372Z,7.30
2019-04-11T16:06:10.812Z,7.20
2019-04-11T16:08:51.741Z,7.20
2019-04-11T16:11:51.463Z,7.20
2019-04-11T16:14:41.909Z,7.00
2019-04-11T16:17:25.662Z,7.10
2019-04-11T16:19:56.653Z,7.10
2019-04-11T16:22:43.436Z,7.20
2019-04-11T16:25:14.563Z,7.20
2019-04-11T16:28:08.637Z,7.20
2019-04-11T16:30:45.745Z,7.00
2019-04-11T16:33:45.668Z,7.00
2019-04-11T16:36:17.288Z,7.00
2019-04-11T16:39:08.176Z,6.90
2019-04-11T16:41:54.638Z,6.90
2019-04-11T16:44:54.944Z,7.00
2019-04-11T16:47:37.776Z,6.90
2019-04-11T16:50:06.670Z,6.90
2019-04-11T16:52:38.261Z,6.80
2019-04-11T16:55:09.817Z,6.80
2019-04-11T16:57:37.638Z,6.80
2019-04-11T17:00:09.123Z,6.80
2019-04-11T17:02:38.056Z,6.80
2019-04-11T17:05:08.112Z,6.80
2019-04-11T17:08:10.955Z,6.80
2019-04-11T17:10:57.819Z,6.70
2019-04-11T17:13:26.774Z,6.60
2019-04-11T17:15:55.590Z,6.70
2019-04-11T17:18:24.415Z,6.60
2019-04-11T17:20:53.306Z,6.60
2019-04-11T17:23:22.077Z,6.50
2019-04-11T17:25:52.963Z,6.50
2019-04-11T17:28:23.128Z,6.50
2019-04-11T17:30:58.775Z,6.30
2019-04-11T17:33:25.533Z,6.40
2019-04-11T17:35:53.676Z,6.40
2019-04-11T17:38:22.470Z,6.40
2019-04-11T17:41:03.143Z,6.40
2019-04-11T17:43:32.027Z,6.40
2019-04-11T17:46:00.916Z,6.30
2019-04-11T17:48:29.915Z,6.30
2019-04-11T17:51:04.921Z,6.40
2019-04-11T17:53:31.529Z,6.20
2019-04-11T17:56:00.326Z,6.20
2019-04-11T17:58:29.057Z,6.30
2019-04-11T18:01:00.533Z,6.20
2019-04-11T18:03:29.580Z,6.20
2019-04-11T18:05:58.408Z,6.20
2019-04-11T18:08:27.246Z,6.20
2019-04-11T18:10:56.663Z,6.10
2019-04-11T18:13:25.548Z,6.10
2019-04-11T18:15:54.403Z,6.10
2019-04-11T18:18:23.362Z,6.20
2019-04-11T18:20:52.099Z,6.10
2019-04-11T18:23:21.048Z,6.10
2019-04-11T18:25:51.121Z,6.10
2019-04-11T18:28:21.975Z,6.10
2019-04-11T18:30:54.126Z,6.10
2019-04-11T18:33:23.810Z,6.00
2019-04-11T18:35:52.698Z,6.00
2019-04-11T18:38:21.498Z,6.00
2019-04-11T18:40:50.331Z,5.90
2019-04-11T18:43:19.958Z,5.90
2019-04-11T18:45:53.588Z,5.90
2019-04-11T18:48:22.382Z,6.00
2019-04-11T18:50:53.176Z,6.00
2019-04-11T18:53:21.768Z,5.90
2019-04-11T18:55:50.645Z,5.90
2019-04-11T18:58:19.727Z,5.90
2019-04-11T19:00:48.703Z,5.90
2019-04-11T19:03:17.803Z,6.00
2019-04-11T19:05:46.648Z,5.90
2019-04-11T19:08:15.538Z,6.00
2019-04-11T19:10:45.708Z,6.00
2019-04-11T19:13:16.993Z,5.90
2019-04-11T19:15:46.396Z,5.90
2019-04-11T19:18:16.535Z,5.90
2019-04-11T19:20:50.076Z,5.80
2019-04-11T19:23:16.687Z,5.80
2019-04-11T19:25:45.449Z,5.80
2019-04-11T19:28:14.280Z,5.80
2019-04-11T19:30:43.188Z,5.80
2019-04-11T19:33:11.946Z,5.80
2019-04-11T19:35:41.615Z,5.80
2019-04-11T19:38:24.186Z,5.80
2019-04-11T19:40:55.524Z,5.80
2019-04-11T19:43:23.710Z,5.80
2019-04-11T19:45:58.549Z,5.80
2019-04-11T19:48:26.551Z,5.80
2019-04-11T19:50:58.622Z,5.70
2019-04-11T19:53:25.805Z,5.70
2019-04-11T19:55:59.882Z,5.70
2019-04-11T19:58:30.940Z,5.70
2019-04-11T20:00:59.744Z,5.70
2019-04-11T20:03:28.463Z,5.70
2019-04-11T20:05:57.315Z,5.70
2019-04-11T20:08:26.055Z,5.60
2019-04-11T20:10:54.773Z,5.60
2019-04-11T20:13:23.664Z,5.60
2019-04-11T20:15:52.552Z,5.70
2019-04-11T20:18:50.287Z,5.60
2019-04-11T20:21:11.308Z,5.60
2019-04-11T20:23:41.873Z,5.60
2019-04-11T20:26:10.546Z,5.50
2019-04-11T20:28:39.338Z,5.50
2019-04-11T20:31:08.040Z,5.60
2019-04-11T20:33:36.860Z,5.50
2019-04-11T20:36:08.099Z,5.60
2019-04-11T20:38:36.360Z,5.50
2019-04-11T20:41:05.341Z,5.60
2019-04-11T20:43:34.201Z,5.50
2019-04-11T20:46:03.718Z,5.50
2019-04-11T20:48:35.061Z,5.50
2019-04-11T20:51:05.175Z,5.40
2019-04-11T20:53:36.571Z,5.30
2019-04-11T20:56:04.889Z,5.30
2019-04-11T20:58:33.855Z,5.40
2019-04-11T21:01:03.303Z,5.30
2019-04-11T21:03:32.166Z,5.30
2019-04-11T21:06:01.799Z,5.30
2019-04-11T21:08:33.041Z,5.30
2019-04-11T21:11:01.984Z,5.30
2019-04-11T21:13:32.280Z,5.20
2019-04-11T21:16:01.121Z,5.20
2019-04-11T21:18:29.989Z,5.20
2019-04-11T21:20:59.022Z,5.10
2019-04-11T21:23:29.773Z,5.20
2019-04-11T21:25:59.120Z,5.20
2019-04-11T21:28:30.271Z,5.20
2019-04-11T21:31:00.112Z,5.20
2019-04-11T21:33:34.228Z,5.10
2019-04-11T21:36:01.325Z,5.20
2019-04-11T21:38:31.437Z,5.10
2019-04-11T21:41:01.254Z,5.10
2019-04-11T21:43:30.068Z,5.10
2019-04-11T21:45:59.196Z,5.10
2019-04-11T21:48:27.983Z,5.00
2019-04-11T21:50:56.825Z,5.10
2019-04-11T21:53:36.062Z,5.00
2019-04-11T21:55:56.211Z,5.00
2019-04-11T21:58:25.110Z,5.10
2019-04-11T22:01:01.206Z,5.10
2019-04-11T22:03:30.604Z,4.90
2019-04-11T22:06:00.095Z,4.80
2019-04-11T22:08:31.960Z,4.90
2019-04-11T22:11:02.948Z,4.90
2019-04-11T22:13:31.851Z,4.90
2019-04-11T22:16:00.603Z,4.80
2019-04-11T22:18:29.431Z,4.80
2019-04-11T22:20:58.294Z,4.90
2019-04-11T22:23:27.245Z,4.90
2019-04-11T22:25:56.061Z,4.80
2019-04-11T22:28:25.154Z,4.80
2019-04-11T22:30:55.222Z,4.70
2019-04-11T22:33:35.316Z,4.50
2019-04-11T22:36:04.240Z,4.60
2019-04-11T22:38:33.118Z,4.70
2019-04-11T22:41:02.655Z,4.70
2019-04-11T22:43:31.684Z,4.70
2019-04-11T22:46:00.402Z,4.60
2019-04-11T22:48:29.256Z,4.60
2019-04-11T22:50:58.213Z,4.60
2019-04-11T22:53:27.126Z,4.70
2019-04-11T22:55:56.171Z,4.70
2019-04-11T22:58:25.018Z,4.60
2019-04-11T23:00:53.760Z,4.50
2019-04-11T23:03:27.192Z,4.60
2019-04-11T23:05:56.880Z,4.60
2019-04-11T23:08:25.715Z,4.60
2019-04-11T23:10:54.495Z,4.60
2019-04-11T23:13:23.311Z,4.40
2019-04-11T23:15:52.507Z,4.40
2019-04-11T23:18:21.350Z,4.30
2019-04-11T23:20:51.002Z,4.40
2019-04-11T23:23:19.918Z,4.30
2019-04-11T23:25:49.720Z,4.30
2019-04-11T23:28:18.544Z,4.20
2019-04-11T23:30:50.350Z,4.20
2019-04-11T23:33:18.954Z,4.30
2019-04-11T23:35:48.891Z,4.20
2019-04-11T23:38:18.943Z,4.30
2019-04-11T23:40:48.912Z,4.30
2019-04-11T23:43:20.160Z,4.20
2019-04-11T23:45:50.906Z,4.20
2019-04-11T23:48:19.239Z,4.30
2019-04-11T23:50:48.154Z,4.30
2019-04-11T23:53:16.961Z,4.20
2019-04-11T23:55:45.832Z,4.30
2019-04-11T23:58:14.640Z,4.30
